createdAt,value
2023-01-25T00:01:07.277Z,28.20
2023-01-25T00:03:35.188Z,24.10
2023-01-25T00:06:03.262Z,25.10
2023-01-25T00:08:31.129Z,25.00
2023-01-25T00:10:58.987Z,26.00
2023-01-25T00:13:27.177Z,28.10
2023-01-25T00:16:01.636Z,27.40
2023-01-25T00:18:29.644Z,27.10
2023-01-25T00:20:57.611Z,25.00
2023-01-25T00:23:25.446Z,28.50
2023-01-25T00:26:00.544Z,26.10
2023-01-25T00:28:28.410Z,25.20
2023-01-25T00:31:08.313Z,26.80
2023-01-25T00:33:56.022Z,26.00
2023-01-25T00:36:27.802Z,26.80
2023-01-25T00:38:58.004Z,31.90
2023-01-25T00:41:26.586Z,27.90
2023-01-25T00:43:54.735Z,21.60
2023-01-25T00:46:23.493Z,23.60
2023-01-25T00:48:54.919Z,23.50
2023-01-25T00:51:24.076Z,24.70
2023-01-25T00:53:52.266Z,25.70
2023-01-25T00:56:20.438Z,21.00
2023-01-25T00:58:48.771Z,20.10
2023-01-25T01:01:18.205Z,14.60
2023-01-25T01:03:46.110Z,16.10
2023-01-25T01:06:14.822Z,17.20
2023-01-25T01:08:42.875Z,16.00
2023-01-25T01:11:13.160Z,14.50
2023-01-25T01:13:41.209Z,15.70
2023-01-25T01:16:12.189Z,14.00
2023-01-25T01:18:43.642Z,15.80
2023-01-25T01:21:13.496Z,13.10
2023-01-25T01:23:42.054Z,13.20
2023-01-25T01:26:14.880Z,13.50
2023-01-25T01:28:42.948Z,16.00
2023-01-25T01:31:23.294Z,14.20
2023-01-25T01:34:07.671Z,15.70
2023-01-25T01:36:35.511Z,19.90
2023-01-25T01:39:03.635Z,14.90
2023-01-25T01:41:31.444Z,13.40
2023-01-25T01:44:00.180Z,15.10
2023-01-25T01:46:30.187Z,13.40
2023-01-25T01:49:06.545Z,15.60
2023-01-25T01:52:00.267Z,13.10
2023-01-25T01:54:36.520Z,13.90
2023-01-25T01:57:12.295Z,11.70
2023-01-25T01:59:56.303Z,16.00
2023-01-25T02:02:26.212Z,13.70
2023-01-25T02:04:59.706Z,11.60
2023-01-25T02:07:34.997Z,10.50
2023-01-25T02:10:11.414Z,31.50
2023-01-25T02:12:41.435Z,13.90
2023-01-25T02:15:10.691Z,11.40
2023-01-25T02:17:41.536Z,11.80
2023-01-25T02:20:45.542Z,12.40
2023-01-25T02:23:22.088Z,11.40
2023-01-25T02:25:50.499Z,8.50
2023-01-25T02:28:20.680Z,11.60
2023-01-25T02:30:49.027Z,8.40
2023-01-25T02:33:17.315Z,8.40
2023-01-25T02:35:53.928Z,8.90
2023-01-25T02:38:22.286Z,9.20
2023-01-25T02:40:57.884Z,13.50
2023-01-25T02:43:31.080Z,8.30
2023-01-25T02:46:22.726Z,25.50
2023-01-25T02:48:50.662Z,11.30
2023-01-25T02:51:18.683Z,7.70
2023-01-25T02:53:47.731Z,6.90
2023-01-25T02:56:16.830Z,7.20
2023-01-25T02:58:45.541Z,5.90
2023-01-25T03:01:14.524Z,6.70
2023-01-25T03:03:43.464Z,5.10
2023-01-25T03:06:12.020Z,6.80
2023-01-25T03:08:40.706Z,7.60
2023-01-25T03:11:08.998Z,7.30
2023-01-25T03:13:37.857Z,5.50
2023-01-25T03:16:09.091Z,5.80
2023-01-25T03:18:38.237Z,6.20
2023-01-25T03:21:07.192Z,12.40
2023-01-25T03:23:35.839Z,13.00
2023-01-25T03:26:13.318Z,5.80
2023-01-25T03:28:51.529Z,17.20
2023-01-25T03:31:20.570Z,9.10
2023-01-25T03:33:49.883Z,7.00
2023-01-25T03:36:19.280Z,7.20
2023-01-25T03:38:47.250Z,5.20
2023-01-25T03:41:15.491Z,6.30
2023-01-25T03:43:43.525Z,6.30
2023-01-25T03:46:11.866Z,5.70
2023-01-25T03:48:40.013Z,5.90
2023-01-25T03:51:08.038Z,7.60
2023-01-25T03:53:37.211Z,8.10
2023-01-25T03:56:12.117Z,7.90
2023-01-25T03:58:40.956Z,7.10
2023-01-25T04:01:09.398Z,7.20
2023-01-25T04:03:37.551Z,6.80
2023-01-25T04:06:06.611Z,7.80
2023-01-25T04:08:36.007Z,6.90
2023-01-25T04:11:09.961Z,6.20
2023-01-25T04:13:40.028Z,8.50
2023-01-25T04:16:12.371Z,8.90
2023-01-25T04:19:09.813Z,8.10
2023-01-25T04:21:38.056Z,8.00
2023-01-25T04:24:06.875Z,10.50
2023-01-25T04:26:36.687Z,13.60
2023-01-25T04:29:04.627Z,7.60
2023-01-25T04:31:33.948Z,11.40
2023-01-25T04:34:02.336Z,10.20
2023-01-25T04:36:30.362Z,10.30
2023-01-25T04:38:59.158Z,9.80
2023-01-25T04:41:29.387Z,9.40
2023-01-25T04:43:58.816Z,10.80
2023-01-25T04:46:26.907Z,8.30
2023-01-25T04:48:54.959Z,8.90
2023-01-25T04:51:22.873Z,12.30
2023-01-25T04:53:50.899Z,10.00
2023-01-25T04:56:18.964Z,12.60
2023-01-25T04:58:53.971Z,13.20
2023-01-25T05:01:22.899Z,10.50
2023-01-25T05:03:51.373Z,8.20
2023-01-25T05:06:38.689Z,14.30
2023-01-25T05:09:07.163Z,31.30
2023-01-25T05:11:36.016Z,34.70
2023-01-25T05:14:08.465Z,21.50
2023-01-25T05:16:36.768Z,35.80
2023-01-25T05:19:04.931Z,35.40
2023-01-25T05:22:00.121Z,34.80
2023-01-25T05:24:36.198Z,14.80
2023-01-25T05:27:08.107Z,28.30
2023-01-25T05:30:02.101Z,33.50
2023-01-25T05:32:50.292Z,29.40
2023-01-25T05:35:18.716Z,40.20
2023-01-25T05:37:46.872Z,30.70
2023-01-25T05:40:19.222Z,18.20
2023-01-25T05:42:54.306Z,20.80
2023-01-25T05:45:22.360Z,17.40
2023-01-25T05:47:57.582Z,25.00
2023-01-25T05:50:27.104Z,28.60
2023-01-25T05:53:04.696Z,21.20
2023-01-25T05:55:35.713Z,27.00
2023-01-25T05:58:05.896Z,12.70
2023-01-25T06:00:33.754Z,13.30
2023-01-25T06:03:05.376Z,14.80
2023-01-25T06:05:36.836Z,12.30
2023-01-25T06:08:04.897Z,11.20
2023-01-25T06:10:42.072Z,13.90
2023-01-25T06:13:10.024Z,15.00
2023-01-25T06:15:37.906Z,14.70
2023-01-25T06:18:45.175Z,11.60
2023-01-25T06:21:22.692Z,12.50
2023-01-25T06:23:51.003Z,13.00
2023-01-25T06:26:18.963Z,12.20
2023-01-25T06:28:47.084Z,13.00
2023-01-25T06:31:17.334Z,13.40
2023-01-25T06:33:49.958Z,13.00
2023-01-25T06:36:20.940Z,12.80
2023-01-25T06:38:50.848Z,13.70
2023-01-25T06:41:19.903Z,13.10
2023-01-25T06:43:51.239Z,13.90
2023-01-25T06:46:20.530Z,13.00
2023-01-25T06:48:48.603Z,12.90
2023-01-25T06:51:18.273Z,12.10
2023-01-25T06:53:47.786Z,16.50
2023-01-25T06:56:21.947Z,14.20
2023-01-25T06:58:50.737Z,13.70
2023-01-25T07:01:21.507Z,15.40
2023-01-25T07:03:51.144Z,13.50
2023-01-25T07:06:19.750Z,15.40
2023-01-25T07:08:48.309Z,11.30
2023-01-25T07:11:19.062Z,13.50
2023-01-25T07:13:47.934Z,13.90
2023-01-25T07:16:20.530Z,16.20
2023-01-25T07:18:48.370Z,15.00
2023-01-25T07:21:20.529Z,14.30
2023-01-25T07:23:49.708Z,15.50
2023-01-25T07:26:25.485Z,19.70
2023-01-25T07:28:53.968Z,17.20
2023-01-25T07:31:21.886Z,21.20
2023-01-25T07:33:51.732Z,17.70
2023-01-25T07:36:20.400Z,18.70
2023-01-25T07:38:48.917Z,16.30
2023-01-25T07:41:16.741Z,23.30
2023-01-25T07:43:44.774Z,17.30
2023-01-25T07:46:14.360Z,20.20
2023-01-25T07:48:50.853Z,17.90
2023-01-25T07:51:27.200Z,20.20
2023-01-25T07:54:01.086Z,15.80
2023-01-25T07:56:31.937Z,16.30
2023-01-25T07:59:02.802Z,18.60
2023-01-25T08:01:34.554Z,24.50
2023-01-25T08:04:04.792Z,21.80
2023-01-25T08:06:36.327Z,23.40
2023-01-25T08:09:08.614Z,21.90
2023-01-25T08:11:36.447Z,22.40
2023-01-25T08:14:04.611Z,29.20
2023-01-25T08:16:33.605Z,24.40
2023-01-25T08:19:03.404Z,56.20
2023-01-25T08:21:34.154Z,75.20
2023-01-25T08:24:05.519Z,29.50
2023-01-25T08:26:35.016Z,26.10
2023-01-25T08:29:03.978Z,22.60
2023-01-25T08:31:34.179Z,25.00
2023-01-25T08:34:02.311Z,22.40
2023-01-25T08:36:30.573Z,23.20
2023-01-25T08:39:07.012Z,23.10
2023-01-25T08:41:35.627Z,23.90
2023-01-25T08:44:05.592Z,25.10
2023-01-25T08:46:34.659Z,26.50
2023-01-25T08:49:03.408Z,24.90
2023-01-25T08:51:33.478Z,23.10
2023-01-25T08:54:06.334Z,24.90
2023-01-25T08:56:37.872Z,25.50
2023-01-25T08:59:07.415Z,22.30
2023-01-25T09:01:35.676Z,23.00
2023-01-25T09:04:03.964Z,22.20
2023-01-25T09:06:33.092Z,29.10
2023-01-25T09:09:00.994Z,27.50
2023-01-25T09:11:29.111Z,24.70
2023-01-25T09:13:57.029Z,26.40
2023-01-25T09:16:29.442Z,27.30
2023-01-25T09:19:03.357Z,29.50
2023-01-25T09:21:32.925Z,27.50
2023-01-25T09:24:08.782Z,28.30
2023-01-25T09:26:40.873Z,27.50
2023-01-25T09:29:12.863Z,29.50
2023-01-25T09:31:43.724Z,28.60
2023-01-25T09:34:38.741Z,26.70
2023-01-25T09:37:06.614Z,26.00
2023-01-25T09:39:34.556Z,26.00
2023-01-25T09:42:21.545Z,25.40
2023-01-25T09:45:12.203Z,29.00
2023-01-25T09:47:44.355Z,26.00
2023-01-25T09:50:34.755Z,25.70
2023-01-25T09:53:21.880Z,26.40
2023-01-25T09:55:55.791Z,24.50
2023-01-25T09:58:33.388Z,21.90
2023-01-25T10:01:15.685Z,25.70
2023-01-25T10:03:53.344Z,25.10
2023-01-25T10:09:00.727Z,24.40
2023-01-25T10:11:31.732Z,24.80
2023-01-25T10:14:00.576Z,23.50
2023-01-25T10:16:36.982Z,24.30
2023-01-25T10:19:17.222Z,26.40
2023-01-25T10:22:19.819Z,22.20
2023-01-25T10:25:21.338Z,20.20
2023-01-25T10:28:14.640Z,20.20
2023-01-25T10:30:56.090Z,28.80
2023-01-25T10:33:24.459Z,27.00
2023-01-25T10:35:52.370Z,28.60
2023-01-25T10:38:28.267Z,26.20
2023-01-25T10:41:14.246Z,29.10
2023-01-25T10:43:42.066Z,35.90
2023-01-25T10:46:28.789Z,32.90
2023-01-25T10:48:57.858Z,33.50
2023-01-25T10:51:35.521Z,33.40
2023-01-25T10:54:06.325Z,37.70
2023-01-25T10:56:39.378Z,26.90
2023-01-25T10:59:28.512Z,25.90
2023-01-25T11:01:58.324Z,26.20
2023-01-25T11:04:36.965Z,21.30
2023-01-25T11:07:06.387Z,22.90
2023-01-25T11:09:39.201Z,22.30
2023-01-25T11:12:20.987Z,21.10
2023-01-25T11:14:50.348Z,21.20
2023-01-25T11:17:26.423Z,21.10
2023-01-25T11:20:23.500Z,19.90
2023-01-25T11:22:56.576Z,24.30
2023-01-25T11:25:28.372Z,21.80
2023-01-25T11:28:23.107Z,24.10
2023-01-25T11:30:53.277Z,28.80
2023-01-25T11:33:22.670Z,26.00
2023-01-25T11:36:33.325Z,26.60
2023-01-25T11:39:22.201Z,25.10
2023-01-25T11:42:14.883Z,25.60
2023-01-25T11:45:14.138Z,25.10
2023-01-25T11:47:46.366Z,25.00
2023-01-25T11:50:39.180Z,26.90
2023-01-25T11:53:33.501Z,24.30
2023-01-25T11:56:13.642Z,24.60
2023-01-25T11:58:50.753Z,24.30
2023-01-25T12:01:33.747Z,26.60
2023-01-25T12:04:27.651Z,25.00
2023-01-25T12:07:10.584Z,29.50
2023-01-25T12:09:47.164Z,38.30
2023-01-25T12:12:49.606Z,36.40
2023-01-25T12:15:46.121Z,34.50
2023-01-25T12:18:32.814Z,31.40
2023-01-25T12:23:31.346Z,34.70
2023-01-25T12:26:21.029Z,78.60
2023-01-25T12:29:38.106Z,40.00
2023-01-25T12:32:31.255Z,38.70
2023-01-25T12:35:22.540Z,36.10
2023-01-25T12:37:56.201Z,31.20
2023-01-25T12:40:57.087Z,28.80
2023-01-25T12:43:33.082Z,29.00
2023-01-25T12:46:11.056Z,31.70
2023-01-25T12:48:44.086Z,29.30
2023-01-25T12:51:12.454Z,27.60
2023-01-25T12:53:44.163Z,32.20
2023-01-25T12:56:29.146Z,29.40
2023-01-25T12:59:04.008Z,30.00
2023-01-25T13:01:54.510Z,35.40
2023-01-25T13:04:55.075Z,27.60
2023-01-25T13:07:27.636Z,29.80
2023-01-25T13:10:03.213Z,26.80
2023-01-25T13:12:54.823Z,50.40
2023-01-25T13:15:41.231Z,28.20
2023-01-25T13:18:27.842Z,28.80
2023-01-25T13:20:58.252Z,28.70
2023-01-25T13:23:33.988Z,30.80
2023-01-25T13:26:29.850Z,38.20
2023-01-25T13:29:01.506Z,30.00
2023-01-25T13:31:51.032Z,27.30
2023-01-25T13:34:39.550Z,25.10
2023-01-25T13:37:25.794Z,24.60
2023-01-25T13:40:13.684Z,37.70
2023-01-25T13:42:42.794Z,31.60
2023-01-25T13:45:21.462Z,38.70
2023-01-25T13:48:14.436Z,34.10
2023-01-25T13:50:51.616Z,38.50
2023-01-25T13:53:23.024Z,37.40
2023-01-25T13:55:56.931Z,34.30
2023-01-25T13:58:30.115Z,35.00
2023-01-25T14:01:06.662Z,38.30
2023-01-25T14:03:46.843Z,37.40
2023-01-25T14:06:19.094Z,35.20
2023-01-25T14:08:49.167Z,34.30
2023-01-25T14:11:26.963Z,33.30
2023-01-25T14:14:18.536Z,39.00
2023-01-25T14:16:46.902Z,34.40
2023-01-25T14:19:23.494Z,34.10
2023-01-25T14:22:17.810Z,33.00
2023-01-25T14:24:46.718Z,36.10
2023-01-25T14:27:16.842Z,33.20
2023-01-25T14:29:49.194Z,33.00
2023-01-25T14:32:21.531Z,31.30
2023-01-25T14:34:49.667Z,56.30
2023-01-25T14:37:22.346Z,50.00
2023-01-25T14:39:52.172Z,36.80
2023-01-25T14:42:22.883Z,36.30
2023-01-25T14:44:50.843Z,37.80
2023-01-25T14:47:32.661Z,37.80
2023-01-25T14:50:34.904Z,37.90
2023-01-25T14:53:19.911Z,43.00
2023-01-25T14:55:49.985Z,48.20
2023-01-25T14:58:21.393Z,45.70
2023-01-25T15:01:01.827Z,45.90
2023-01-25T15:03:31.491Z,37.10
2023-01-25T15:06:04.575Z,43.30
2023-01-25T15:08:39.242Z,43.10
2023-01-25T15:11:48.903Z,45.70
2023-01-25T15:14:22.345Z,49.10
2023-01-25T15:16:50.286Z,50.90
2023-01-25T15:19:30.656Z,47.40
2023-01-25T15:22:00.641Z,49.70
2023-01-25T15:24:28.871Z,57.20
2023-01-25T15:26:56.908Z,53.10
2023-01-25T15:29:28.937Z,48.80
2023-01-25T15:31:56.871Z,41.30
2023-01-25T15:34:32.618Z,42.90
2023-01-25T15:37:00.437Z,43.40
2023-01-25T15:39:28.996Z,49.50
2023-01-25T15:41:57.040Z,43.40
2023-01-25T15:44:24.955Z,42.60
2023-01-25T15:46:53.804Z,38.20
2023-01-25T15:49:32.413Z,37.70
2023-01-25T15:52:00.260Z,33.50
2023-01-25T15:54:28.183Z,32.40
2023-01-25T15:56:59.102Z,30.50
2023-01-25T15:59:27.661Z,29.70
2023-01-25T16:01:55.603Z,32.70
2023-01-25T16:04:25.315Z,28.20
2023-01-25T16:06:55.099Z,28.00
2023-01-25T16:09:31.156Z,24.90
2023-01-25T16:12:01.535Z,26.60
2023-01-25T16:14:31.546Z,27.80
2023-01-25T16:17:03.092Z,30.00
2023-01-25T16:19:31.807Z,35.20
2023-01-25T16:21:59.903Z,42.50
2023-01-25T16:24:28.063Z,54.40
2023-01-25T16:26:58.162Z,36.90
2023-01-25T16:29:27.000Z,35.90
2023-01-25T16:31:55.373Z,31.00
2023-01-25T16:34:23.497Z,29.20
2023-01-25T16:36:51.431Z,32.20
2023-01-25T16:39:22.338Z,29.80
2023-01-25T16:41:50.479Z,29.30
2023-01-25T16:44:18.323Z,30.20
2023-01-25T16:46:48.398Z,28.80
2023-01-25T16:49:20.670Z,28.90
2023-01-25T16:51:50.356Z,30.40
2023-01-25T16:54:22.898Z,39.10
2023-01-25T16:56:52.487Z,31.00
2023-01-25T16:59:23.011Z,35.10
2023-01-25T17:01:52.316Z,30.10
2023-01-25T17:04:20.756Z,34.60
2023-01-25T17:06:51.075Z,31.20
2023-01-25T17:09:25.417Z,30.70
2023-01-25T17:11:55.551Z,33.50
2023-01-25T17:14:23.619Z,32.60
2023-01-25T17:16:55.604Z,32.80
2023-01-25T17:19:23.793Z,31.80
2023-01-25T17:21:51.676Z,30.30
2023-01-25T17:24:21.929Z,26.70
2023-01-25T17:26:51.214Z,32.20
2023-01-25T17:29:19.095Z,36.70
2023-01-25T17:31:46.999Z,38.80
2023-01-25T17:34:20.035Z,38.00
2023-01-25T17:36:49.632Z,39.40
2023-01-25T17:39:19.842Z,47.30
2023-01-25T17:41:49.602Z,46.30
2023-01-25T17:44:22.732Z,39.90
2023-01-25T17:46:51.239Z,41.40
2023-01-25T17:49:19.489Z,37.70
2023-01-25T17:51:47.578Z,38.40
2023-01-25T17:54:15.561Z,42.20
2023-01-25T17:56:43.819Z,40.50
2023-01-25T17:59:19.167Z,40.20
2023-01-25T18:01:48.373Z,44.70
2023-01-25T18:04:17.750Z,56.50
2023-01-25T18:06:45.820Z,47.90
2023-01-25T18:09:13.768Z,46.80
2023-01-25T18:11:41.893Z,48.30
2023-01-25T18:14:17.063Z,45.50
2023-01-25T18:16:45.172Z,39.40
2023-01-25T18:19:13.537Z,40.70
2023-01-25T18:21:42.509Z,39.60
2023-01-25T18:24:34.159Z,36.90
2023-01-25T18:27:23.638Z,37.60
2023-01-25T18:30:16.721Z,35.50
2023-01-25T18:32:44.575Z,34.30
2023-01-25T18:35:12.673Z,35.00
2023-01-25T18:37:43.809Z,37.20
2023-01-25T18:40:14.117Z,40.20
2023-01-25T18:42:42.269Z,37.10
2023-01-25T18:45:10.808Z,36.40
2023-01-25T18:47:39.256Z,37.40
2023-01-25T18:50:13.968Z,39.50
2023-01-25T18:52:42.951Z,38.10
2023-01-25T18:55:15.173Z,37.00
2023-01-25T18:57:46.141Z,37.00
2023-01-25T19:00:16.717Z,36.00
2023-01-25T19:02:44.590Z,37.70
2023-01-25T19:05:14.468Z,34.80
2023-01-25T19:07:43.469Z,34.90
2023-01-25T19:10:11.780Z,35.30
2023-01-25T19:12:40.110Z,34.40
2023-01-25T19:15:08.939Z,34.00
2023-01-25T19:17:38.304Z,35.00
2023-01-25T19:20:06.807Z,31.90
2023-01-25T19:22:34.668Z,33.90
2023-01-25T19:25:02.515Z,37.00
2023-01-25T19:27:30.550Z,34.80
2023-01-25T19:29:58.390Z,36.60
2023-01-25T19:32:26.197Z,36.50
2023-01-25T19:34:54.092Z,38.20
2023-01-25T19:37:21.959Z,35.80
2023-01-25T19:39:51.093Z,38.20
2023-01-25T19:42:19.006Z,37.00
2023-01-25T19:44:48.915Z,41.40
2023-01-25T19:47:16.806Z,34.30
2023-01-25T19:49:44.700Z,42.20
2023-01-25T19:52:12.568Z,35.70
2023-01-25T19:54:40.698Z,43.00
2023-01-25T19:57:09.234Z,38.00
2023-01-25T19:59:37.157Z,40.90
2023-01-25T20:02:05.360Z,35.30
2023-01-25T20:04:33.191Z,32.90
2023-01-25T20:07:01.015Z,34.50
2023-01-25T20:09:28.926Z,39.10
2023-01-25T20:11:58.410Z,39.00
2023-01-25T20:14:27.015Z,39.00
2023-01-25T20:16:54.873Z,44.00
2023-01-25T20:19:22.838Z,49.00
2023-01-25T20:21:51.048Z,51.80
2023-01-25T20:24:19.005Z,52.90
2023-01-25T20:26:47.568Z,55.50
2023-01-25T20:29:15.653Z,53.10
2023-01-25T20:31:45.745Z,56.00
2023-01-25T20:34:22.336Z,48.00
2023-01-25T20:36:51.314Z,51.00
2023-01-25T20:39:20.991Z,46.70
2023-01-25T20:41:53.554Z,50.40
2023-01-25T20:44:21.780Z,48.70
2023-01-25T20:46:52.185Z,48.80
2023-01-25T20:49:22.530Z,48.20
2023-01-25T20:51:50.350Z,49.00
2023-01-25T20:54:18.364Z,47.20
2023-01-25T20:56:50.667Z,49.50
2023-01-25T20:59:19.518Z,53.20
2023-01-25T21:01:47.632Z,49.90
2023-01-25T21:04:15.715Z,52.20
2023-01-25T21:06:43.648Z,49.10
2023-01-25T21:09:12.109Z,52.50
2023-01-25T21:11:39.965Z,52.00
2023-01-25T21:14:07.953Z,52.00
2023-01-25T21:16:35.873Z,49.60
2023-01-25T21:19:06.494Z,49.50
2023-01-25T21:21:35.108Z,53.40
2023-01-25T21:24:05.361Z,51.10
2023-01-25T21:26:35.286Z,49.80
2023-01-25T21:29:04.532Z,50.80
2023-01-25T21:31:38.904Z,48.90
2023-01-25T21:34:06.956Z,48.10
2023-01-25T21:36:34.923Z,49.30
2023-01-25T21:39:04.107Z,47.60
2023-01-25T21:41:33.881Z,49.40
2023-01-25T21:44:21.755Z,50.80
2023-01-25T21:47:16.248Z,54.80
2023-01-25T21:49:56.435Z,52.10
2023-01-25T21:52:24.556Z,53.20
2023-01-25T21:54:52.810Z,55.60
2023-01-25T21:57:20.744Z,57.40
2023-01-25T21:59:49.027Z,54.90
2023-01-25T22:02:17.144Z,50.90
2023-01-25T22:04:45.353Z,54.10
2023-01-25T22:07:13.156Z,53.70
2023-01-25T22:09:41.066Z,53.80
2023-01-25T22:12:09.415Z,53.60
2023-01-25T22:14:37.272Z,55.50
2023-01-25T22:17:05.300Z,57.70
2023-01-25T22:19:33.579Z,53.80
2023-01-25T22:22:01.751Z,53.50
2023-01-25T22:24:29.614Z,55.70
2023-01-25T22:27:03.353Z,56.80
2023-01-25T22:29:33.148Z,57.60
2023-01-25T22:32:02.443Z,58.30
2023-01-25T22:34:30.453Z,67.50
2023-01-25T22:36:58.375Z,70.30
2023-01-25T22:39:27.307Z,73.10
2023-01-25T22:41:56.500Z,74.00
2023-01-25T22:44:24.428Z,69.00
2023-01-25T22:46:53.925Z,70.20
2023-01-25T22:49:21.848Z,72.00
2023-01-25T22:51:49.782Z,75.60
2023-01-25T22:54:17.922Z,71.00
2023-01-25T22:56:45.803Z,69.60
2023-01-25T22:59:20.033Z,69.50
2023-01-25T23:01:48.032Z,70.00
2023-01-25T23:04:15.965Z,67.30
2023-01-25T23:06:43.909Z,71.30
2023-01-25T23:09:11.911Z,70.60
2023-01-25T23:11:39.799Z,66.80
2023-01-25T23:14:30.609Z,63.50
2023-01-25T23:17:17.259Z,62.40
2023-01-25T23:19:45.676Z,65.90
2023-01-25T23:22:13.627Z,64.00
2023-01-25T23:24:41.580Z,60.60
2023-01-25T23:27:09.475Z,68.40
2023-01-25T23:29:37.621Z,65.50
2023-01-25T23:32:05.969Z,64.90
2023-01-25T23:34:37.169Z,61.70
2023-01-25T23:37:05.125Z,63.40
2023-01-25T23:39:33.234Z,62.50
2023-01-25T23:42:01.267Z,66.00
2023-01-25T23:44:29.425Z,63.30
2023-01-25T23:46:57.499Z,60.60
2023-01-25T23:49:25.382Z,58.20
2023-01-25T23:51:53.208Z,61.80
2023-01-25T23:54:21.111Z,63.60
2023-01-25T23:56:48.962Z,57.80
2023-01-25T23:59:16.785Z,60.40
